createdAt,value
2018-12-27T00:02:12.407Z,16.27
2018-12-27T00:04:39.818Z,16.83
2018-12-27T00:07:07.219Z,19.07
2018-12-27T00:09:35.204Z,16.53
2018-12-27T00:12:01.632Z,15.63
2018-12-27T00:14:28.727Z,16.07
2018-12-27T00:16:55.257Z,17.97
2018-12-27T00:19:21.619Z,17.07
2018-12-27T00:21:49.374Z,17.47
2018-12-27T00:24:16.027Z,13.93
2018-12-27T00:26:42.416Z,13.53
2018-12-27T00:29:08.803Z,16.43
2018-12-27T00:31:35.208Z,14.43
2018-12-27T00:34:01.623Z,15.10
2018-12-27T00:36:28.006Z,16.33
2018-12-27T00:38:55.663Z,16.07
2018-12-27T00:41:22.422Z,15.73
2018-12-27T00:43:48.836Z,14.87
2018-12-27T00:46:15.250Z,15.33
2018-12-27T00:48:41.677Z,19.50
2018-12-27T00:51:08.101Z,15.03
2018-12-27T00:53:34.522Z,14.07
2018-12-27T00:56:00.937Z,15.73
2018-12-27T00:58:27.699Z,15.50
2018-12-27T01:00:54.114Z,17.03
2018-12-27T01:03:20.519Z,15.80
2018-12-27T01:05:47.027Z,15.97
2018-12-27T01:08:13.464Z,17.27
2018-12-27T01:10:40.205Z,14.90
2018-12-27T01:13:06.783Z,15.37
2018-12-27T01:15:33.530Z,13.93
2018-12-27T01:18:00.301Z,14.53
2018-12-27T01:20:26.729Z,17.07
2018-12-27T01:22:54.890Z,15.27
2018-12-27T01:25:21.353Z,16.43
2018-12-27T01:27:47.763Z,15.47
2018-12-27T01:30:14.295Z,16.30
2018-12-27T01:32:40.747Z,14.00
2018-12-27T01:35:07.140Z,15.03
2018-12-27T01:37:33.536Z,14.70
2018-12-27T01:39:59.932Z,15.80
2018-12-27T01:42:26.719Z,14.20
2018-12-27T01:44:53.148Z,16.03
2018-12-27T01:47:19.598Z,14.17
2018-12-27T01:49:46.141Z,17.17
2018-12-27T01:52:12.861Z,15.83
2018-12-27T01:54:39.302Z,15.83
2018-12-27T01:57:05.756Z,14.70
2018-12-27T01:59:32.553Z,15.37
2018-12-27T02:01:59.486Z,15.10
2018-12-27T02:04:26.007Z,13.67
2018-12-27T02:06:52.401Z,14.03
2018-12-27T02:09:18.815Z,13.83
2018-12-27T02:11:45.319Z,14.73
2018-12-27T02:14:11.754Z,13.17
2018-12-27T02:16:38.142Z,13.10
2018-12-27T02:19:04.944Z,15.43
2018-12-27T02:21:31.299Z,14.47
2018-12-27T02:23:57.705Z,14.03
2018-12-27T02:26:25.493Z,13.87
2018-12-27T02:28:52.411Z,14.83
2018-12-27T02:31:18.971Z,14.97
2018-12-27T02:33:45.410Z,12.63
2018-12-27T02:36:11.838Z,13.30
2018-12-27T02:38:38.601Z,13.87
2018-12-27T02:41:05.059Z,13.03
2018-12-27T02:43:31.458Z,13.30
2018-12-27T02:45:58.230Z,15.93
2018-12-27T02:48:24.704Z,15.47
2018-12-27T02:50:51.114Z,13.10
2018-12-27T02:53:17.556Z,13.47
2018-12-27T02:55:44.355Z,11.57
2018-12-27T02:58:10.754Z,13.53
2018-12-27T03:00:37.562Z,12.10
2018-12-27T03:03:04.091Z,13.90
2018-12-27T03:05:30.873Z,13.73
2018-12-27T03:07:57.290Z,13.10
2018-12-27T03:10:24.864Z,11.83
2018-12-27T03:12:51.475Z,13.33
2018-12-27T03:15:18.315Z,13.63
2018-12-27T03:17:44.755Z,14.43
2018-12-27T03:20:11.291Z,15.80
2018-12-27T03:22:37.593Z,14.43
2018-12-27T03:25:04.007Z,14.13
2018-12-27T03:27:30.512Z,13.70
2018-12-27T03:29:57.044Z,14.90
2018-12-27T03:32:23.811Z,12.70
2018-12-27T03:34:50.220Z,13.23
2018-12-27T03:37:16.690Z,14.00
2018-12-27T03:39:43.290Z,14.23
2018-12-27T03:42:09.709Z,12.43
2018-12-27T03:44:36.429Z,13.67
2018-12-27T03:47:02.874Z,15.83
2018-12-27T03:49:29.366Z,15.27
2018-12-27T03:51:55.799Z,16.23
2018-12-27T03:54:22.272Z,16.20
2018-12-27T03:56:48.776Z,14.13
2018-12-27T03:59:15.149Z,15.50
2018-12-27T04:01:41.544Z,12.57
2018-12-27T04:04:07.967Z,15.07
2018-12-27T04:06:34.774Z,14.77
2018-12-27T04:09:01.209Z,15.87
2018-12-27T04:11:27.721Z,13.90
2018-12-27T04:13:54.410Z,15.43
2018-12-27T04:16:20.797Z,18.03
2018-12-27T04:18:47.241Z,16.23
2018-12-27T04:21:13.731Z,17.43
2018-12-27T04:23:40.775Z,15.00
2018-12-27T04:26:07.541Z,15.73
2018-12-27T04:28:33.941Z,15.60
2018-12-27T04:31:00.469Z,15.50
2018-12-27T04:33:27.834Z,16.90
2018-12-27T04:35:54.697Z,14.90
2018-12-27T04:38:21.155Z,16.43
2018-12-27T04:40:47.971Z,17.70
2018-12-27T04:43:15.693Z,15.63
2018-12-27T04:45:42.661Z,14.37
2018-12-27T04:48:09.098Z,14.10
2018-12-27T04:50:35.562Z,15.97
2018-12-27T04:53:02.008Z,17.17
2018-12-27T04:55:29.550Z,14.07
2018-12-27T04:57:56.181Z,16.40
2018-12-27T05:00:22.604Z,14.00
2018-12-27T05:02:49.013Z,15.87
2018-12-27T05:05:15.433Z,14.93
2018-12-27T05:07:41.853Z,16.20
2018-12-27T05:10:08.288Z,15.57
2018-12-27T05:12:35.095Z,16.97
2018-12-27T05:15:02.057Z,17.23
2018-12-27T05:17:28.448Z,13.77
2018-12-27T05:19:54.855Z,13.53
2018-12-27T05:22:21.365Z,14.43
2018-12-27T05:24:48.142Z,15.97
2018-12-27T05:27:14.944Z,14.80
2018-12-27T05:29:41.660Z,13.63
2018-12-27T05:32:08.060Z,14.97
2018-12-27T05:34:34.486Z,14.67
2018-12-27T05:37:00.889Z,14.83
2018-12-27T05:39:27.610Z,13.50
2018-12-27T05:41:54.082Z,13.33
2018-12-27T05:44:20.520Z,14.60
2018-12-27T05:46:47.006Z,14.23
2018-12-27T05:49:13.490Z,12.03
2018-12-27T05:51:39.909Z,12.93
2018-12-27T05:54:06.337Z,12.70
2018-12-27T05:56:33.150Z,14.27
2018-12-27T05:59:00.722Z,13.60
2018-12-27T06:01:27.091Z,14.60
2018-12-27T06:03:53.525Z,10.97
2018-12-27T06:06:20.279Z,13.67
2018-12-27T06:08:46.694Z,14.57
2018-12-27T06:11:13.141Z,12.57
2018-12-27T06:13:39.566Z,13.37
2018-12-27T06:16:06.033Z,14.40
2018-12-27T06:18:32.444Z,13.13
2018-12-27T06:20:58.824Z,10.87
2018-12-27T06:23:25.593Z,12.77
2018-12-27T06:25:52.022Z,11.80
2018-12-27T06:28:18.538Z,11.33
2018-12-27T06:30:45.068Z,14.40
2018-12-27T06:33:11.474Z,13.20
2018-12-27T06:35:37.874Z,12.87
2018-12-27T06:38:04.365Z,13.10
2018-12-27T06:40:31.293Z,13.43
2018-12-27T06:42:57.654Z,15.33
2018-12-27T06:48:01.223Z,14.43
2018-12-27T06:50:27.642Z,12.10
2018-12-27T06:52:54.521Z,14.77
2018-12-27T06:55:21.026Z,13.23
2018-12-27T06:57:47.422Z,13.17
2018-12-27T07:00:13.852Z,13.73
2018-12-27T07:02:40.275Z,11.93
2018-12-27T07:05:06.679Z,12.00
2018-12-27T07:07:33.480Z,13.30
2018-12-27T07:10:02.335Z,11.80
2018-12-27T07:12:28.823Z,13.83
2018-12-27T07:14:55.615Z,12.90
2018-12-27T07:17:22.141Z,12.47
2018-12-27T07:19:48.494Z,13.70
2018-12-27T07:22:16.091Z,14.50
2018-12-27T07:24:42.926Z,13.03
2018-12-27T07:27:09.374Z,13.83
2018-12-27T07:29:35.808Z,13.07
2018-12-27T07:32:02.557Z,11.67
2018-12-27T07:34:29.002Z,13.83
2018-12-27T07:36:55.514Z,13.73
2018-12-27T07:39:21.962Z,12.77
2018-12-27T07:41:48.363Z,11.30
2018-12-27T07:44:14.996Z,11.33
2018-12-27T07:46:41.452Z,11.37
2018-12-27T07:49:08.197Z,11.40
2018-12-27T07:51:34.688Z,10.97
2018-12-27T07:54:01.216Z,11.67
2018-12-27T07:56:28.090Z,11.33
2018-12-27T07:58:54.904Z,12.63
2018-12-27T08:01:21.426Z,14.57
2018-12-27T08:03:47.925Z,13.47
2018-12-27T08:06:14.386Z,12.27
2018-12-27T08:08:40.915Z,14.50
2018-12-27T08:11:07.323Z,13.17
2018-12-27T08:13:33.918Z,12.30
2018-12-27T08:16:00.659Z,15.07
2018-12-27T08:18:27.111Z,12.80
2018-12-27T08:20:53.541Z,10.90
2018-12-27T08:23:19.959Z,12.67
2018-12-27T08:25:46.415Z,12.37
2018-12-27T08:28:12.820Z,10.30
2018-12-27T08:30:39.312Z,13.73
2018-12-27T08:33:06.126Z,11.90
2018-12-27T08:35:32.561Z,11.67
2018-12-27T08:37:58.899Z,11.40
2018-12-27T08:40:25.293Z,10.90
2018-12-27T08:42:51.731Z,11.10
2018-12-27T08:45:18.496Z,10.10
2018-12-27T08:47:45.045Z,11.37
2018-12-27T08:50:11.946Z,10.27
2018-12-27T08:52:38.693Z,10.20
2018-12-27T08:55:05.430Z,11.03
2018-12-27T08:57:31.778Z,9.73
2018-12-27T08:59:58.618Z,11.33
2018-12-27T09:02:25.095Z,11.60
2018-12-27T09:04:51.530Z,10.20
2018-12-27T09:07:18.890Z,11.67
2018-12-27T09:09:45.727Z,13.43
2018-12-27T09:12:12.079Z,9.93
2018-12-27T09:14:38.506Z,9.70
2018-12-27T09:17:05.008Z,10.00
2018-12-27T09:19:31.495Z,9.13
2018-12-27T09:21:58.044Z,9.30
2018-12-27T09:24:24.569Z,9.00
2018-12-27T09:26:51.349Z,9.00
2018-12-27T09:29:18.022Z,8.70
2018-12-27T09:31:44.609Z,8.83
2018-12-27T09:34:11.018Z,8.77
2018-12-27T09:36:37.416Z,9.27
2018-12-27T09:39:05.171Z,8.63
2018-12-27T09:41:33.032Z,9.57
2018-12-27T09:43:59.862Z,7.30
2018-12-27T09:46:26.260Z,7.30
2018-12-27T09:48:52.660Z,8.73
2018-12-27T09:51:19.150Z,7.67
2018-12-27T09:53:46.799Z,9.80
2018-12-27T09:56:14.382Z,10.30
2018-12-27T09:58:41.134Z,6.70
2018-12-27T10:01:07.766Z,6.43
2018-12-27T10:03:34.180Z,7.70
2018-12-27T10:06:00.643Z,7.53
2018-12-27T10:08:27.767Z,6.97
2018-12-27T10:10:54.212Z,6.67
2018-12-27T10:13:20.658Z,7.20
2018-12-27T10:15:47.234Z,7.80
2018-12-27T10:18:13.657Z,6.80
2018-12-27T10:20:40.279Z,7.43
2018-12-27T10:23:06.635Z,7.83
2018-12-27T10:25:33.436Z,6.90
2018-12-27T10:27:59.852Z,7.10
2018-12-27T10:30:26.290Z,7.33
2018-12-27T10:32:52.744Z,7.97
2018-12-27T10:35:19.145Z,7.33
2018-12-27T10:37:45.594Z,6.80
2018-12-27T10:40:13.102Z,7.50
2018-12-27T10:42:39.518Z,7.03
2018-12-27T10:45:07.907Z,7.53
2018-12-27T10:47:34.560Z,6.83
2018-12-27T10:50:01.018Z,9.13
2018-12-27T10:52:27.499Z,7.20
2018-12-27T10:54:54.172Z,8.40
2018-12-27T10:57:20.778Z,7.47
2018-12-27T10:59:47.281Z,7.60
2018-12-27T11:02:15.236Z,7.00
2018-12-27T11:04:42.208Z,7.93
2018-12-27T11:07:08.665Z,8.67
2018-12-27T11:09:37.321Z,8.23
2018-12-27T11:12:03.966Z,7.53
2018-12-27T11:14:30.409Z,8.97
2018-12-27T11:16:57.270Z,10.17
2018-12-27T11:19:23.787Z,7.33
2018-12-27T11:21:50.343Z,7.70
2018-12-27T11:24:17.110Z,8.13
2018-12-27T11:26:43.952Z,8.30
2018-12-27T11:29:10.382Z,7.70
2018-12-27T11:31:36.802Z,7.20
2018-12-27T11:34:03.936Z,7.67
2018-12-27T11:36:30.730Z,8.00
2018-12-27T11:38:57.114Z,7.83
2018-12-27T11:41:23.634Z,7.30
2018-12-27T11:43:50.929Z,7.40
2018-12-27T11:46:17.663Z,6.50
2018-12-27T11:48:44.282Z,7.70
2018-12-27T11:51:11.583Z,7.97
2018-12-27T11:53:38.026Z,7.20
2018-12-27T11:56:04.587Z,9.47
2018-12-27T11:58:31.064Z,7.17
2018-12-27T12:00:57.541Z,6.97
2018-12-27T12:03:24.069Z,8.27
2018-12-27T12:05:50.870Z,8.67
2018-12-27T12:08:18.001Z,7.53
2018-12-27T12:10:44.492Z,6.83
2018-12-27T12:13:11.252Z,7.83
2018-12-27T12:15:37.798Z,7.70
2018-12-27T12:18:04.205Z,7.37
2018-12-27T12:20:30.637Z,9.13
2018-12-27T12:22:57.076Z,7.90
2018-12-27T12:25:23.534Z,7.53
2018-12-27T12:27:49.935Z,7.47
2018-12-27T12:30:16.716Z,7.83
2018-12-27T12:32:43.151Z,6.93
2018-12-27T12:35:09.781Z,7.97
2018-12-27T12:37:36.504Z,6.93
2018-12-27T12:40:04.493Z,10.37
2018-12-27T12:42:33.183Z,13.03
2018-12-27T12:44:59.602Z,7.83
2018-12-27T12:47:28.301Z,7.90
2018-12-27T12:49:54.809Z,10.00
2018-12-27T12:52:21.542Z,9.40
2018-12-27T12:54:48.025Z,12.80
2018-12-27T12:57:14.434Z,10.07
2018-12-27T12:59:40.945Z,9.77
2018-12-27T13:02:07.580Z,10.47
2018-12-27T13:04:34.408Z,8.87
2018-12-27T13:07:00.962Z,10.37
2018-12-27T13:09:27.514Z,10.80
2018-12-27T13:11:54.006Z,10.53
2018-12-27T13:14:20.542Z,10.10
2018-12-27T13:16:47.651Z,11.37
2018-12-27T13:19:14.418Z,10.27
2018-12-27T13:21:43.696Z,11.33
2018-12-27T13:24:10.458Z,9.73
2018-12-27T13:26:37.410Z,12.17
2018-12-27T13:29:03.828Z,12.47
2018-12-27T13:31:30.684Z,11.47
2018-12-27T13:33:57.206Z,13.07
2018-12-27T13:36:25.511Z,10.33
2018-12-27T13:38:52.373Z,11.27
2018-12-27T13:41:19.038Z,10.77
2018-12-27T13:43:45.753Z,12.83
2018-12-27T13:46:13.018Z,11.80
2018-12-27T13:48:39.839Z,12.90
2018-12-27T13:51:06.934Z,14.37
2018-12-27T13:53:33.431Z,12.57
2018-12-27T13:56:00.249Z,12.87
2018-12-27T13:58:27.048Z,11.83
2018-12-27T14:00:53.536Z,12.57
2018-12-27T14:03:19.903Z,11.83
2018-12-27T14:05:46.508Z,13.80
2018-12-27T14:08:12.950Z,13.17
2018-12-27T14:10:39.419Z,12.17
2018-12-27T14:13:06.318Z,14.37
2018-12-27T14:15:33.268Z,13.00
2018-12-27T14:17:59.663Z,12.63
2018-12-27T14:20:26.174Z,12.47
2018-12-27T14:22:53.031Z,13.87
2018-12-27T14:25:19.435Z,11.47
2018-12-27T14:27:45.975Z,14.00
2018-12-27T14:30:12.735Z,12.93
2018-12-27T14:32:39.181Z,11.63
2018-12-27T14:35:06.411Z,12.20
2018-12-27T14:37:32.877Z,12.37
2018-12-27T14:39:59.562Z,13.33
2018-12-27T14:42:28.631Z,13.43
2018-12-27T14:44:56.044Z,14.30
2018-12-27T14:47:22.616Z,13.00
2018-12-27T14:49:49.174Z,12.37
2018-12-27T14:52:15.728Z,13.33
2018-12-27T14:54:42.371Z,13.47
2018-12-27T14:57:09.324Z,14.37
2018-12-27T14:59:36.178Z,14.17
2018-12-27T15:02:03.066Z,13.47
2018-12-27T15:04:29.599Z,14.33
2018-12-27T15:06:56.433Z,15.53
2018-12-27T15:09:22.895Z,14.07
2018-12-27T15:11:49.488Z,14.27
2018-12-27T15:14:16.378Z,15.70
2018-12-27T15:16:45.063Z,14.37
2018-12-27T15:19:12.855Z,14.77
2018-12-27T15:21:40.209Z,13.57
2018-12-27T15:24:06.739Z,16.63
2018-12-27T15:26:33.522Z,14.17
2018-12-27T15:29:00.375Z,16.37
2018-12-27T15:31:27.144Z,14.57
2018-12-27T15:33:53.647Z,11.93
2018-12-27T15:36:20.163Z,14.30
2018-12-27T15:38:47.695Z,14.70
2018-12-27T15:41:14.283Z,15.17
2018-12-27T15:43:41.143Z,14.03
2018-12-27T15:46:07.599Z,15.87
2018-12-27T15:48:34.618Z,16.83
2018-12-27T15:51:01.445Z,15.30
2018-12-27T15:53:28.367Z,16.77
2018-12-27T15:55:55.121Z,15.17
2018-12-27T15:58:22.712Z,15.40
2018-12-27T16:00:49.564Z,18.20
2018-12-27T16:03:16.170Z,15.03
2018-12-27T16:05:43.142Z,15.70
2018-12-27T16:08:09.714Z,15.30
2018-12-27T16:10:38.444Z,16.13
2018-12-27T16:13:07.877Z,16.23
2018-12-27T16:15:34.353Z,15.03
2018-12-27T16:18:01.125Z,17.10
2018-12-27T16:20:27.566Z,17.87
2018-12-27T16:22:53.989Z,14.73
2018-12-27T16:25:20.776Z,15.70
2018-12-27T16:27:47.663Z,15.37
2018-12-27T16:30:14.266Z,13.83
2018-12-27T16:32:41.197Z,15.47
2018-12-27T16:35:07.900Z,13.97
2018-12-27T16:37:34.410Z,14.03
2018-12-27T16:40:02.168Z,15.80
2018-12-27T16:42:28.809Z,14.27
2018-12-27T16:44:55.320Z,14.17
2018-12-27T16:47:21.931Z,17.20
2018-12-27T16:49:48.887Z,14.00
2018-12-27T16:52:15.548Z,18.30
2018-12-27T16:54:42.091Z,16.03
2018-12-27T16:57:09.316Z,17.23
2018-12-27T16:59:35.857Z,17.83
2018-12-27T17:02:02.384Z,17.00
2018-12-27T17:04:29.082Z,17.37
2018-12-27T17:06:57.472Z,15.97
2018-12-27T17:09:25.483Z,15.47
2018-12-27T17:11:52.785Z,16.03
2018-12-27T17:14:21.533Z,15.23
2018-12-27T17:16:48.662Z,13.83
2018-12-27T17:19:15.283Z,14.83
2018-12-27T17:21:43.616Z,13.93
2018-12-27T17:24:12.143Z,11.70
2018-12-27T17:26:40.461Z,12.17
2018-12-27T17:29:08.794Z,13.43
2018-12-27T17:31:37.148Z,16.33
2018-12-27T17:34:08.584Z,14.67
2018-12-27T17:36:36.915Z,15.77
2018-12-27T17:39:05.541Z,14.10
2018-12-27T17:41:33.808Z,17.47
2018-12-27T17:44:02.193Z,14.70
2018-12-27T17:46:30.529Z,15.93
2018-12-27T17:48:58.918Z,16.03
2018-12-27T17:51:27.319Z,16.63
2018-12-27T17:53:55.732Z,18.40
2018-12-27T17:56:24.119Z,14.10
2018-12-27T17:58:52.442Z,16.23
2018-12-27T18:01:20.779Z,18.27
2018-12-27T18:03:49.160Z,16.33
2018-12-27T18:06:17.561Z,13.00
2018-12-27T18:08:45.894Z,15.27
2018-12-27T18:11:14.225Z,15.30
2018-12-27T18:13:42.541Z,18.43
2018-12-27T18:16:11.283Z,15.67
2018-12-27T18:18:39.648Z,14.03
2018-12-27T18:21:08.541Z,15.47
2018-12-27T18:23:36.875Z,16.13
2018-12-27T18:26:05.343Z,19.37
2018-12-27T18:28:33.690Z,19.37
2018-12-27T18:31:02.054Z,17.23
2018-12-27T18:33:29.356Z,15.80
2018-12-27T18:35:55.831Z,16.30
2018-12-27T18:38:22.191Z,19.10
2018-12-27T18:40:48.551Z,18.60
2018-12-27T18:43:14.977Z,16.40
2018-12-27T18:45:41.581Z,19.20
2018-12-27T18:48:08.996Z,17.67
2018-12-27T18:50:35.462Z,17.10
2018-12-27T18:53:01.950Z,15.03
2018-12-27T18:55:30.153Z,14.10
2018-12-27T18:57:56.842Z,15.00
2018-12-27T19:00:23.256Z,15.13
2018-12-27T19:02:49.647Z,16.13
2018-12-27T19:05:16.059Z,17.90
2018-12-27T19:07:45.042Z,15.67
2018-12-27T19:10:11.951Z,14.90
2018-12-27T19:13:02.200Z,20.07
2018-12-27T19:15:29.719Z,15.87
2018-12-27T19:17:56.288Z,19.07
2018-12-27T19:20:23.117Z,19.77
2018-12-27T19:22:53.344Z,16.53
2018-12-27T19:25:19.868Z,17.17
2018-12-27T19:27:46.345Z,17.23
2018-12-27T19:30:12.747Z,16.80
2018-12-27T19:32:39.284Z,19.90
2018-12-27T19:35:05.962Z,18.17
2018-12-27T19:37:32.620Z,20.80
2018-12-27T19:39:59.038Z,20.73
2018-12-27T19:42:26.087Z,17.50
2018-12-27T19:44:52.897Z,21.37
2018-12-27T19:47:19.649Z,24.73
2018-12-27T19:49:46.053Z,22.17
2018-12-27T19:52:13.201Z,20.97
2018-12-27T19:54:39.718Z,21.17
2018-12-27T19:57:06.195Z,21.10
2018-12-27T19:59:34.160Z,21.40
2018-12-27T20:02:00.568Z,19.43
2018-12-27T20:04:27.513Z,20.63
2018-12-27T20:06:54.516Z,23.07
2018-12-27T20:09:21.001Z,19.50
2018-12-27T20:11:47.506Z,18.50
2018-12-27T20:14:15.388Z,20.17
2018-12-27T20:16:42.212Z,20.10
2018-12-27T20:19:08.826Z,20.70
2018-12-27T20:21:35.374Z,18.60
2018-12-27T20:24:01.967Z,20.03
2018-12-27T20:26:28.790Z,21.23
2018-12-27T20:28:55.393Z,18.53
2018-12-27T20:31:22.012Z,19.17
2018-12-27T20:33:48.696Z,19.33
2018-12-27T20:36:15.321Z,18.37
2018-12-27T20:38:41.767Z,16.87
2018-12-27T20:41:08.418Z,18.43
2018-12-27T20:43:35.283Z,16.87
2018-12-27T20:46:01.873Z,15.20
2018-12-27T20:48:28.928Z,15.13
2018-12-27T20:50:55.619Z,18.10
2018-12-27T20:53:22.201Z,14.47
2018-12-27T20:55:48.596Z,18.93
2018-12-27T20:58:15.037Z,18.50
2018-12-27T21:00:41.826Z,15.30
2018-12-27T21:03:08.454Z,17.00
2018-12-27T21:05:34.808Z,16.20
2018-12-27T21:08:01.240Z,16.50
2018-12-27T21:10:27.697Z,15.87
2018-12-27T21:12:54.650Z,18.07
2018-12-27T21:15:21.076Z,16.00
2018-12-27T21:17:47.602Z,14.03
2018-12-27T21:20:14.118Z,15.77
2018-12-27T21:22:40.592Z,14.73
2018-12-27T21:25:07.236Z,24.07
2018-12-27T21:27:34.093Z,15.43
2018-12-27T21:30:01.091Z,15.13
2018-12-27T21:32:27.541Z,18.17
2018-12-27T21:34:54.082Z,17.77
2018-12-27T21:37:20.677Z,18.77
2018-12-27T21:39:47.225Z,16.20
2018-12-27T21:42:13.752Z,17.80
2018-12-27T21:44:42.008Z,15.20
2018-12-27T21:47:08.520Z,17.60
2018-12-27T21:49:35.244Z,21.07
2018-12-27T21:52:02.122Z,23.40
2018-12-27T21:54:28.743Z,21.53
2018-12-27T21:56:55.233Z,20.63
2018-12-27T21:59:23.415Z,19.70
2018-12-27T22:01:49.914Z,19.57
2018-12-27T22:04:16.830Z,19.87
2018-12-27T22:06:43.457Z,16.47
2018-12-27T22:09:09.927Z,21.00
2018-12-27T22:11:36.308Z,19.87
2018-12-27T22:14:03.230Z,17.97
2018-12-27T22:16:30.359Z,16.93
2018-12-27T22:18:56.896Z,23.40
2018-12-27T22:21:23.746Z,19.83
2018-12-27T22:23:50.178Z,19.17
2018-12-27T22:26:18.476Z,16.93
2018-12-27T22:28:46.752Z,17.70
2018-12-27T22:31:15.133Z,18.63
2018-12-27T22:33:43.805Z,20.20
2018-12-27T22:36:12.053Z,18.33
2018-12-27T22:38:40.412Z,18.03
2018-12-27T22:41:08.650Z,18.13
2018-12-27T22:43:37.042Z,20.23
2018-12-27T22:46:05.302Z,19.50
2018-12-27T22:48:33.659Z,18.17
2018-12-27T22:51:02.163Z,17.83
2018-12-27T22:53:30.545Z,18.50
2018-12-27T22:55:59.028Z,19.70
2018-12-27T22:58:27.385Z,16.80
2018-12-27T23:00:56.214Z,17.53
2018-12-27T23:03:24.963Z,18.13
2018-12-27T23:05:53.529Z,20.03
2018-12-27T23:08:22.008Z,17.97
2018-12-27T23:10:50.521Z,17.83
2018-12-27T23:13:18.823Z,18.10
2018-12-27T23:15:47.380Z,17.97
2018-12-27T23:18:15.776Z,18.37
2018-12-27T23:20:44.070Z,21.23
2018-12-27T23:23:12.468Z,19.23
2018-12-27T23:25:40.894Z,17.73
2018-12-27T23:28:09.207Z,16.27
2018-12-27T23:30:37.571Z,14.77
2018-12-27T23:33:05.922Z,17.77
2018-12-27T23:35:33.319Z,19.07
2018-12-27T23:37:59.835Z,19.20
2018-12-27T23:40:26.725Z,17.87
2018-12-27T23:42:53.100Z,17.17
2018-12-27T23:45:22.856Z,19.03
2018-12-27T23:47:49.237Z,20.67
2018-12-27T23:50:16.037Z,18.57
2018-12-27T23:52:42.761Z,20.47
2018-12-27T23:55:09.203Z,17.37
2018-12-27T23:57:35.930Z,18.77
